createdAt,value
2019-01-19T00:02:55.328Z,98865.69
2019-01-19T00:08:23.557Z,98860.84
2019-01-19T00:14:05.982Z,98864.52
2019-01-19T00:19:48.340Z,98863.25
2019-01-19T00:25:17.650Z,98852.01
2019-01-19T00:30:59.935Z,98852.48
2019-01-19T00:36:42.224Z,98848.75
2019-01-19T00:42:24.510Z,98846.20
2019-01-19T00:48:06.870Z,98851.77
2019-01-19T00:53:23.080Z,98839.95
2019-01-19T01:05:15.653Z,98841.86
2019-01-19T01:10:57.970Z,98846.42
2019-01-19T01:16:35.709Z,98839.33
2019-01-19T01:22:18.248Z,98843.81
2019-01-19T01:33:38.686Z,98843.34
2019-01-19T01:39:20.970Z,98849.69
2019-01-19T01:45:03.248Z,98844.09
2019-01-19T01:56:42.786Z,98841.39
2019-01-19T02:02:25.070Z,98840.67
2019-01-19T02:13:59.991Z,98835.36
2019-01-19T02:19:42.271Z,98829.56
2019-01-19T02:25:24.552Z,98827.31
2019-01-19T02:31:06.844Z,98820.05
2019-01-19T02:36:49.167Z,98818.84
2019-01-19T02:48:19.407Z,98799.05
2019-01-19T02:54:01.743Z,98800.38
2019-01-19T02:59:18.334Z,98795.65
2019-01-19T03:04:44.557Z,98794.91
2019-01-19T03:10:26.847Z,98790.34
2019-01-19T03:16:09.133Z,98776.49
2019-01-19T03:21:51.425Z,98774.78
2019-01-19T03:27:19.263Z,98770.25
2019-01-19T03:38:59.386Z,98767.95
2019-01-19T03:44:41.670Z,98767.45
2019-01-19T03:50:23.964Z,98761.19
2019-01-19T03:56:06.496Z,98761.19
2019-01-19T04:01:22.946Z,98750.20
2019-01-19T04:07:05.631Z,98742.87
2019-01-19T04:12:59.824Z,98745.48
2019-01-19T04:24:37.829Z,98735.21
2019-01-19T04:35:10.746Z,98724.30
2019-01-19T04:40:15.036Z,98728.18
2019-01-19T04:50:28.869Z,98728.45
2019-01-19T05:06:13.173Z,98726.08
2019-01-19T05:16:46.178Z,98724.31
2019-01-19T05:21:50.390Z,98726.92
2019-01-19T05:26:54.780Z,98720.39
2019-01-19T05:31:59.009Z,98720.19
2019-01-19T05:37:03.241Z,98723.37
2019-01-19T05:42:07.936Z,98724.91
2019-01-19T05:47:12.194Z,98721.08
2019-01-19T05:57:45.741Z,98714.22
2019-01-19T06:02:49.987Z,98718.26
2019-01-19T06:07:54.252Z,98722.69
2019-01-19T06:13:17.634Z,98719.61
2019-01-19T06:18:21.873Z,98721.59
2019-01-19T06:28:36.009Z,98716.50
2019-01-19T06:33:59.321Z,98715.14
2019-01-19T06:49:48.726Z,98710.61
2019-01-19T06:54:52.966Z,98711.98
2019-01-19T07:05:46.971Z,98705.30
2019-01-19T07:16:02.803Z,98704.13
2019-01-19T07:21:07.093Z,98713.58
2019-01-19T07:26:11.529Z,98717.94
2019-01-19T07:31:15.830Z,98721.53
2019-01-19T07:36:20.343Z,98721.42
2019-01-19T07:41:24.650Z,98722.52
2019-01-19T07:57:09.025Z,98718.43
2019-01-19T08:12:45.211Z,98726.45
2019-01-19T08:22:59.515Z,98736.02
2019-01-19T08:28:23.127Z,98729.27
2019-01-19T08:33:46.420Z,98730.48
2019-01-19T08:38:50.737Z,98731.11
2019-01-19T08:44:14.034Z,98723.46
2019-01-19T08:49:18.284Z,98722.01
2019-01-19T08:59:32.919Z,98721.77
2019-01-19T09:04:37.208Z,98724.58
2019-01-19T09:09:41.546Z,98716.45
2019-01-19T09:14:45.997Z,98714.80
2019-01-19T09:19:50.392Z,98710.38
2019-01-19T09:24:54.787Z,98707.56
2019-01-19T09:29:59.175Z,98706.34
2019-01-19T09:35:03.531Z,98704.63
2019-01-19T09:40:08.270Z,98702.89
2019-01-19T09:45:52.527Z,98699.05
2019-01-19T09:51:15.791Z,98702.34
2019-01-19T10:06:58.985Z,98687.95
2019-01-19T10:17:43.916Z,98672.34
2019-01-19T10:22:48.190Z,98671.48
2019-01-19T10:27:52.784Z,98671.91
2019-01-19T10:32:57.030Z,98667.98
2019-01-19T10:38:01.327Z,98661.52
2019-01-19T10:48:34.965Z,98651.02
2019-01-19T10:58:48.856Z,98629.63
2019-01-19T11:04:12.163Z,98630.11
2019-01-19T11:09:16.427Z,98619.11
2019-01-19T11:14:20.653Z,98612.59
2019-01-19T11:19:44.018Z,98606.95
2019-01-19T11:24:48.252Z,98599.19
2019-01-19T11:29:52.478Z,98583.75
2019-01-19T11:35:15.861Z,98585.77
2019-01-19T11:41:00.650Z,98569.80
2019-01-19T11:46:04.867Z,98562.45
2019-01-19T11:51:28.160Z,98557.26
2019-01-19T11:56:51.398Z,98548.73
2019-01-19T12:01:55.912Z,98538.58
2019-01-19T12:07:00.354Z,98538.89
2019-01-19T12:12:04.715Z,98529.98
2019-01-19T12:17:09.130Z,98521.23
2019-01-19T12:22:15.257Z,98508.72
2019-01-19T12:27:19.543Z,98497.48
2019-01-19T12:32:23.921Z,98492.20
2019-01-19T12:37:28.203Z,98484.09
2019-01-19T12:42:34.404Z,98481.09
2019-01-19T12:47:38.732Z,98472.34
2019-01-19T12:52:43.544Z,98469.98
2019-01-19T12:57:49.354Z,98469.25
2019-01-19T13:02:53.894Z,98461.17
2019-01-19T13:08:02.243Z,98450.75
2019-01-19T13:13:27.784Z,98450.12
2019-01-19T13:19:14.076Z,98440.92
2019-01-19T13:24:29.512Z,98436.98
2019-01-19T13:30:12.131Z,98419.27
2019-01-19T13:35:54.790Z,98419.19
2019-01-19T13:41:37.109Z,98415.94
2019-01-19T13:47:19.441Z,98414.48
2019-01-19T13:58:40.010Z,98400.89
2019-01-19T14:04:26.283Z,98396.77
2019-01-19T14:10:08.558Z,98391.14
2019-01-19T14:15:50.841Z,98390.16
2019-01-19T14:21:33.269Z,98383.66
2019-01-19T14:33:21.056Z,98381.08
2019-01-19T14:39:03.486Z,98376.05
2019-01-19T14:44:45.828Z,98373.74
2019-01-19T14:50:28.111Z,98375.83
2019-01-19T14:56:22.614Z,98364.88
2019-01-19T15:02:04.931Z,98364.58
2019-01-19T15:07:47.204Z,98359.53
2019-01-19T15:19:23.401Z,98356.75
2019-01-19T15:25:05.694Z,98359.73
2019-01-19T15:30:21.267Z,98357.33
2019-01-19T15:36:03.734Z,98350.21
2019-01-19T15:41:46.168Z,98342.52
2019-01-19T15:47:28.443Z,98345.14
2019-01-19T15:53:10.724Z,98343.41
2019-01-19T15:59:07.414Z,98347.69
2019-01-19T16:04:49.962Z,98349.08
2019-01-19T16:10:32.364Z,98351.42
2019-01-19T16:22:11.325Z,98350.09
2019-01-19T16:27:53.612Z,98353.97
2019-01-19T16:33:36.293Z,98357.59
2019-01-19T16:39:25.402Z,98355.02
2019-01-19T16:44:50.896Z,98353.88
2019-01-19T16:50:33.798Z,98354.14
2019-01-19T17:02:15.744Z,98354.27
2019-01-19T17:07:58.046Z,98351.22
2019-01-19T17:19:12.999Z,98350.41
2019-01-19T17:24:55.566Z,98350.28
2019-01-19T17:30:37.844Z,98343.09
2019-01-19T17:35:53.517Z,98348.19
2019-01-19T17:41:35.839Z,98349.94
2019-01-19T17:47:18.120Z,98347.53
2019-01-19T17:53:00.691Z,98342.66
2019-01-19T17:58:43.066Z,98344.22
2019-01-19T18:04:26.450Z,98343.44
2019-01-19T18:10:08.731Z,98345.61
2019-01-19T18:15:51.120Z,98344.34
2019-01-19T18:33:29.767Z,98341.48
2019-01-19T18:39:12.832Z,98340.87
2019-01-19T18:44:55.210Z,98343.60
2019-01-19T18:50:37.487Z,98342.25
2019-01-19T18:56:19.764Z,98344.20
2019-01-19T19:02:02.135Z,98344.80
2019-01-19T19:07:49.462Z,98344.28
2019-01-19T19:13:15.930Z,98342.59
2019-01-19T19:18:58.262Z,98338.64
2019-01-19T19:24:56.083Z,98342.64
2019-01-19T19:36:43.095Z,98341.22
2019-01-19T19:42:25.414Z,98338.77
2019-01-19T19:48:07.729Z,98334.19
2019-01-19T19:53:30.884Z,98336.56
2019-01-19T19:58:35.122Z,98330.11
2019-01-19T20:03:58.424Z,98333.03
2019-01-19T20:14:14.513Z,98332.48
2019-01-19T20:19:19.119Z,98334.42
2019-01-19T20:24:23.737Z,98336.92
2019-01-19T20:29:28.042Z,98336.52
2019-01-19T20:34:51.347Z,98330.95
2019-01-19T20:39:55.582Z,98333.41
2019-01-19T20:44:59.959Z,98332.69
2019-01-19T20:55:33.866Z,98336.52
2019-01-19T21:00:38.092Z,98332.28
2019-01-19T21:06:01.499Z,98332.94
2019-01-19T21:11:45.181Z,98345.08
2019-01-19T21:22:05.443Z,98347.25
2019-01-19T21:27:10.082Z,98342.26
2019-01-19T21:32:14.364Z,98344.23
2019-01-19T21:37:19.119Z,98343.14
2019-01-19T21:42:23.474Z,98341.17
2019-01-19T21:47:46.783Z,98334.40
2019-01-19T21:52:51.656Z,98336.94
2019-01-19T21:58:15.655Z,98340.77
2019-01-19T22:03:19.885Z,98337.58
2019-01-19T22:08:43.188Z,98333.33
2019-01-19T22:13:47.454Z,98337.28
2019-01-19T22:19:10.755Z,98342.62
2019-01-19T22:34:55.729Z,98343.66
2019-01-19T22:39:59.972Z,98346.66
2019-01-19T22:50:46.958Z,98335.55
2019-01-19T22:55:51.552Z,98334.58
2019-01-19T23:01:34.109Z,98330.88
2019-01-19T23:06:38.349Z,98323.69
2019-01-19T23:27:32.025Z,98324.56
2019-01-19T23:37:47.153Z,98321.80
2019-01-19T23:42:51.397Z,98317.96
2019-01-19T23:53:05.263Z,98321.87
2019-01-19T23:58:09.586Z,98324.37
